Time;durP1;ratioP1;P1;durP2;ratioP2;P2;SDS_P1;SDS_P2;PMS_P1;PMS_P2;Temp;Humidity;BMP_temperature;BMP_pressure;BME280_temperature;BME280_humidity;BME280_pressure;Samples;Min_cycle;Max_cycle;Signal;HPM_P1;HPM_P2
2022/09/22 00:00:58;;;;;;;3.70;3.40;;;11.30;99.90;;;;;;5085057;28;20448;-79
2022/09/22 00:03:25;;;;;;;5.33;3.40;;;11.00;99.90;;;;;;5086579;28;20444;-79
2022/09/22 00:06:00;;;;;;;3.40;3.20;;;11.30;99.90;;;;;;5087286;28;20849;-77
2022/09/22 00:08:27;;;;;;;4.50;4.17;;;11.30;99.90;;;;;;5089341;28;20456;-76
2022/09/22 00:11:03;;;;;;;4.03;3.73;;;11.30;99.90;;;;;;5089779;28;20456;-77
2022/09/22 00:13:31;;;;;;;3.50;3.20;;;11.40;99.90;;;;;;5089739;28;20455;-78
2022/09/22 00:15:59;;;;;;;6.23;3.13;;;11.30;99.90;;;;;;5088784;28;20452;-77
2022/09/22 00:18:26;;;;;;;3.83;3.33;;;11.20;99.90;;;;;;5089530;28;20451;-78
2022/09/22 00:20:52;;;;;;;4.73;3.70;;;11.20;99.90;;;;;;5090101;28;20490;-77
2022/09/22 00:23:20;;;;;;;4.57;3.53;;;11.50;99.90;;;;;;5091533;28;20915;-76
2022/09/22 00:25:47;;;;;;;4.40;3.77;;;11.10;99.90;;;;;;5086815;28;20441;-78
2022/09/22 00:28:15;;;;;;;3.87;3.47;;;11.10;99.90;;;;;;5087128;28;20423;-78
2022/09/22 00:30:42;;;;;;;4.47;4.10;;;11.00;99.90;;;;;;5080229;28;20966;-77
2022/09/22 00:33:10;;;;;;;4.50;4.07;;;11.00;99.90;;;;;;5078879;28;20477;-79
2022/09/22 00:35:37;;;;;;;4.37;3.63;;;11.00;99.90;;;;;;5076910;28;20484;-78
2022/09/22 00:38:05;;;;;;;4.40;4.00;;;11.00;99.90;;;;;;5077419;28;20468;-79
2022/09/22 00:40:32;;;;;;;3.50;3.30;;;10.90;99.90;;;;;;5077052;28;20447;-78
2022/09/22 00:43:13;;;;;;;4.87;4.37;;;10.90;99.90;;;;;;5077064;28;20444;-79
2022/09/22 00:45:42;;;;;;;5.60;3.60;;;10.80;99.90;;;;;;5095197;22;20848;-78
2022/09/22 00:48:09;;;;;;;4.10;3.80;;;10.80;99.90;;;;;;5073664;28;20440;-78
2022/09/22 00:50:36;;;;;;;5.27;4.13;;;10.70;99.90;;;;;;5076030;28;20444;-78
2022/09/22 00:53:07;;;;;;;6.00;4.87;;;10.60;99.90;;;;;;5077132;28;20542;-78
2022/09/22 00:55:40;;;;;;;4.57;4.20;;;10.60;99.90;;;;;;5076935;28;20468;-78
2022/09/22 00:58:12;;;;;;;4.30;3.90;;;10.60;99.90;;;;;;5076865;28;20429;-78
2022/09/22 01:00:41;;;;;;;4.13;3.70;;;10.60;99.90;;;;;;5076220;28;20957;-77
2022/09/22 01:03:11;;;;;;;5.80;4.70;;;10.60;99.90;;;;;;5076406;28;20836;-77
2022/09/22 01:05:39;;;;;;;4.73;4.33;;;10.60;99.90;;;;;;5075839;28;20460;-76
2022/09/22 01:08:07;;;;;;;5.07;3.50;;;10.60;99.90;;;;;;5076119;28;20440;-77
2022/09/22 01:10:34;;;;;;;4.33;4.03;;;10.60;99.90;;;;;;5076550;28;20444;-77
2022/09/22 01:13:16;;;;;;;5.93;4.30;;;10.50;99.90;;;;;;5076023;28;20480;-77
2022/09/22 01:15:54;;;;;;;4.73;4.30;;;10.40;99.90;;;;;;5076053;28;21008;-77
2022/09/22 01:18:29;;;;;;;5.30;4.80;;;10.40;99.90;;;;;;5076083;28;20965;-78
2022/09/22 01:21:34;;;;;;;5.10;4.07;;;10.30;99.90;;;;;;5076278;28;20440;-77
2022/09/22 01:24:24;;;;;;;5.90;3.90;;;10.10;99.90;;;;;;5075911;28;20461;-77
2022/09/22 01:27:18;;;;;;;6.57;4.70;;;10.10;99.90;;;;;;5076060;28;20425;-78
2022/09/22 01:30:18;;;;;;;5.17;4.37;;;10.00;99.90;;;;;;5076066;28;20482;-77
2022/09/22 01:33:05;;;;;;;4.17;3.80;;;10.00;99.90;;;;;;5075597;28;20506;-78
2022/09/22 01:35:38;;;;;;;5.03;4.50;;;9.90;99.90;;;;;;5062667;28;20475;-77
2022/09/22 01:38:10;;;;;;;8.93;4.83;;;10.00;99.90;;;;;;5075788;28;20440;-77
2022/09/22 01:40:47;;;;;;;4.63;4.10;;;10.10;99.90;;;;;;5075876;28;20482;-76
2022/09/22 01:43:22;;;;;;;5.23;4.27;;;10.10;99.90;;;;;;5075610;28;20429;-76
2022/09/22 01:45:52;;;;;;;5.97;4.87;;;10.00;99.90;;;;;;5077412;28;20472;-76
2022/09/22 01:48:22;;;;;;;6.77;4.27;;;10.00;99.90;;;;;;5076989;28;20447;-77
2022/09/22 01:50:54;;;;;;;10.57;4.47;;;10.00;99.90;;;;;;5075472;28;20433;-76
2022/09/22 01:53:24;;;;;;;4.13;3.77;;;10.00;99.90;;;;;;5075599;28;20472;-77
2022/09/22 01:55:54;;;;;;;4.77;4.37;;;10.00;99.90;;;;;;5075370;28;20465;-77
2022/09/22 01:58:25;;;;;;;4.17;3.77;;;10.00;99.90;;;;;;5075482;28;20460;-77
2022/09/22 02:00:59;;;;;;;5.43;4.53;;;10.00;99.90;;;;;;5075165;28;20774;-77
2022/09/22 02:03:37;;;;;;;4.77;4.37;;;9.90;99.90;;;;;;5076208;28;20474;-76
2022/09/22 02:06:09;;;;;;;4.17;3.87;;;9.90;99.90;;;;;;5076801;28;20440;-76
2022/09/22 02:08:41;;;;;;;4.27;3.87;;;9.90;99.90;;;;;;5076776;28;20412;-76
2022/09/22 02:11:12;;;;;;;4.63;4.23;;;9.90;99.90;;;;;;5076959;28;20433;-76
2022/09/22 02:13:40;;;;;;;3.73;3.43;;;9.90;99.90;;;;;;5075048;28;20469;-76
2022/09/22 02:16:09;;;;;;;4.73;4.33;;;10.00;99.90;;;;;;5074881;28;20456;-77
2022/09/22 02:18:42;;;;;;;4.40;4.10;;;10.00;99.90;;;;;;5074834;28;20518;-76
2022/09/22 02:21:10;;;;;;;4.50;4.10;;;10.00;99.90;;;;;;5075681;28;20532;-78
2022/09/22 02:23:37;;;;;;;3.30;3.10;;;10.30;99.90;;;;;;5074622;28;20452;-77
2022/09/22 02:26:05;;;;;;;4.43;4.03;;;10.00;99.90;;;;;;5074510;28;20832;-77
2022/09/22 02:28:34;;;;;;;5.97;5.37;;;10.10;99.90;;;;;;5075555;28;20448;-77
2022/09/22 02:31:03;;;;;;;4.97;4.50;;;10.00;99.90;;;;;;5074928;28;20445;-77
2022/09/22 02:33:34;;;;;;;3.83;3.53;;;9.80;99.90;;;;;;5074860;28;20523;-77
2022/09/22 02:36:13;;;;;;;3.80;3.50;;;9.80;99.90;;;;;;5074971;28;20428;-77
2022/09/22 02:38:49;;;;;;;5.30;4.80;;;9.80;99.90;;;;;;5075380;28;20840;-77
2022/09/22 02:41:21;;;;;;;3.90;3.50;;;9.80;99.90;;;;;;5075078;28;20882;-77
2022/09/22 02:43:51;;;;;;;4.40;3.73;;;10.00;99.90;;;;;;5074827;28;20426;-77
2022/09/22 02:46:24;;;;;;;4.27;3.87;;;9.80;99.90;;;;;;5075676;28;20425;-77
2022/09/22 02:48:57;;;;;;;5.50;3.73;;;9.80;99.90;;;;;;5083713;28;20425;-77
2022/09/22 02:51:24;;;;;;;5.07;4.67;;;9.80;99.90;;;;;;5083924;28;20433;-77
2022/09/22 02:53:50;;;;;;;4.10;3.80;;;9.70;99.90;;;;;;5084046;28;20491;-77
2022/09/22 02:56:17;;;;;;;4.80;4.40;;;9.70;99.90;;;;;;5084431;28;20512;-77
2022/09/22 02:58:44;;;;;;;7.23;4.63;;;9.60;99.90;;;;;;5079501;28;20822;-77
2022/09/22 03:01:10;;;;;;;4.90;4.00;;;9.60;99.90;;;;;;5075553;28;20498;-77
2022/09/22 03:03:37;;;;;;;4.10;3.70;;;9.70;99.90;;;;;;5075545;28;20823;-77
2022/09/22 03:06:05;;;;;;;4.37;4.00;;;9.70;99.90;;;;;;5078569;28;20562;-77
2022/09/22 03:08:32;;;;;;;4.00;3.60;;;9.70;99.90;;;;;;5080186;28;20850;-77
2022/09/22 03:10:59;;;;;;;5.93;3.63;;;9.70;99.90;;;;;;5075648;28;20569;-77
2022/09/22 03:13:25;;;;;;;4.30;3.90;;;9.60;99.90;;;;;;5074450;28;20448;-77
2022/09/22 03:15:52;;;;;;;5.27;4.07;;;9.60;99.90;;;;;;5075244;28;21040;-77
2022/09/22 03:18:19;;;;;;;3.90;3.60;;;9.70;99.90;;;;;;5074323;28;20436;-77
2022/09/22 03:20:46;;;;;;;4.57;4.17;;;9.60;99.90;;;;;;5073578;28;20494;-77
2022/09/22 03:23:14;;;;;;;4.70;4.30;;;9.60;99.90;;;;;;5073522;28;20452;-77
2022/09/22 03:25:40;;;;;;;5.13;4.20;;;9.50;99.90;;;;;;5073364;28;20472;-77
2022/09/22 03:28:07;;;;;;;4.43;4.10;;;9.60;99.90;;;;;;5073298;28;20457;-78
2022/09/22 03:30:34;;;;;;;4.43;3.83;;;9.50;99.90;;;;;;5073403;28;20459;-77
2022/09/22 03:33:01;;;;;;;4.13;3.67;;;9.50;99.90;;;;;;5073600;28;20796;-77
2022/09/22 03:35:28;;;;;;;4.17;3.87;;;9.50;99.90;;;;;;5073013;28;21002;-77
2022/09/22 03:37:54;;;;;;;4.03;3.73;;;9.50;99.90;;;;;;5073206;28;20938;-77
2022/09/22 03:40:22;;;;;;;4.63;4.23;;;9.40;99.90;;;;;;5073649;28;20460;-77
2022/09/22 03:42:49;;;;;;;5.80;4.53;;;9.40;99.90;;;;;;5073527;28;20449;-77
2022/09/22 03:45:16;;;;;;;3.53;3.23;;;9.40;99.90;;;;;;5072890;28;20964;-77
2022/09/22 03:47:43;;;;;;;9.47;4.60;;;9.20;99.90;;;;;;5073294;28;21011;-77
2022/09/22 03:50:10;;;;;;;4.60;4.20;;;9.20;99.90;;;;;;5073552;28;20416;-77
2022/09/22 03:52:38;;;;;;;4.83;4.30;;;9.10;99.90;;;;;;5073232;28;20444;-77
2022/09/22 03:55:06;;;;;;;4.10;3.20;;;9.10;99.90;;;;;;5073231;28;20482;-77
2022/09/22 03:57:34;;;;;;;5.17;4.73;;;9.10;99.90;;;;;;5073126;28;20479;-78
2022/09/22 04:00:01;;;;;;;4.80;3.90;;;9.10;99.90;;;;;;5073342;28;20420;-76
2022/09/22 04:02:28;;;;;;;4.33;3.93;;;9.10;99.90;;;;;;5072913;28;20456;-77
2022/09/22 04:04:55;;;;;;;3.90;3.60;;;9.10;99.90;;;;;;5073252;28;20888;-78
2022/09/22 04:07:21;;;;;;;3.97;3.67;;;9.20;99.90;;;;;;5072929;28;20454;-77
2022/09/22 04:09:48;;;;;;;4.20;3.80;;;9.20;99.90;;;;;;5072860;28;20472;-77
2022/09/22 04:12:15;;;;;;;4.50;4.10;;;9.10;99.90;;;;;;5073115;28;20456;-77
2022/09/22 04:14:43;;;;;;;4.70;4.40;;;9.10;99.90;;;;;;5072905;28;20480;-77
2022/09/22 04:17:10;;;;;;;3.63;3.33;;;9.10;99.90;;;;;;5073146;28;20455;-77
2022/09/22 04:19:36;;;;;;;4.23;3.93;;;9.10;99.90;;;;;;5072956;28;20479;-77
2022/09/22 04:22:04;;;;;;;3.60;3.30;;;9.00;99.90;;;;;;5073028;28;20764;-77
2022/09/22 04:24:30;;;;;;;6.10;4.53;;;9.00;99.90;;;;;;5074750;28;20510;-77
2022/09/22 04:26:57;;;;;;;3.90;3.47;;;9.00;99.90;;;;;;5076856;28;20451;-77
2022/09/22 04:29:24;;;;;;;5.17;4.67;;;9.10;99.90;;;;;;5076845;28;20820;-77
2022/09/22 04:31:52;;;;;;;4.60;4.20;;;9.10;99.90;;;;;;5077282;28;20444;-77
2022/09/22 04:34:18;;;;;;;8.20;4.50;;;9.10;99.90;;;;;;5077465;28;20488;-77
2022/09/22 04:36:45;;;;;;;4.77;4.37;;;8.80;99.90;;;;;;5076572;28;20860;-77
2022/09/22 04:39:12;;;;;;;4.33;3.93;;;9.00;99.90;;;;;;5076559;28;20936;-77
2022/09/22 04:41:38;;;;;;;4.20;3.50;;;9.00;99.90;;;;;;5076532;28;20810;-77
2022/09/22 04:44:05;;;;;;;4.20;3.90;;;9.00;99.90;;;;;;5076226;28;20533;-77
2022/09/22 04:46:32;;;;;;;4.43;4.03;;;9.00;99.90;;;;;;5076196;28;20494;-77
2022/09/22 04:49:00;;;;;;;6.10;4.63;;;9.10;99.90;;;;;;5076119;28;20443;-77
2022/09/22 04:51:26;;;;;;;3.77;3.47;;;9.00;99.90;;;;;;5076205;28;20449;-77
2022/09/22 04:53:53;;;;;;;4.10;3.70;;;9.00;99.90;;;;;;5075983;28;20490;-77
2022/09/22 04:56:20;;;;;;;4.53;4.13;;;9.10;99.90;;;;;;5076282;28;20451;-77
2022/09/22 04:58:47;;;;;;;4.63;4.20;;;9.00;99.90;;;;;;5076146;28;20871;-77
2022/09/22 05:01:14;;;;;;;4.73;4.43;;;8.90;99.90;;;;;;5076050;28;20444;-77
2022/09/22 05:03:40;;;;;;;4.37;3.97;;;9.10;99.90;;;;;;5076243;28;20853;-77
2022/09/22 05:06:08;;;;;;;5.30;4.80;;;8.90;99.90;;;;;;5075878;28;20445;-77
2022/09/22 05:08:35;;;;;;;4.77;4.10;;;8.90;99.90;;;;;;5076016;28;20445;-77
2022/09/22 05:11:02;;;;;;;4.60;4.20;;;8.90;99.90;;;;;;5076024;28;20448;-77
2022/09/22 05:13:29;;;;;;;5.83;4.80;;;8.80;99.90;;;;;;5076246;28;20519;-77
2022/09/22 05:15:55;;;;;;;5.50;5.00;;;8.80;99.90;;;;;;5076043;28;20476;-77
2022/09/22 05:18:22;;;;;;;4.77;4.37;;;8.70;99.90;;;;;;5075928;28;20943;-78
2022/09/22 05:20:49;;;;;;;5.67;5.07;;;8.70;99.90;;;;;;5075527;28;20449;-77
2022/09/22 05:23:17;;;;;;;5.43;4.93;;;8.70;99.90;;;;;;5075713;28;20459;-77
2022/09/22 05:25:43;;;;;;;6.50;4.63;;;8.70;99.90;;;;;;5075686;28;20460;-77
2022/09/22 05:28:11;;;;;;;5.20;4.70;;;8.70;99.90;;;;;;5075666;28;20534;-77
2022/09/22 05:30:37;;;;;;;5.20;4.70;;;8.80;99.90;;;;;;5075387;28;20513;-77
2022/09/22 05:33:04;;;;;;;5.90;5.33;;;8.80;99.90;;;;;;5076475;28;20447;-78
2022/09/22 05:35:31;;;;;;;5.53;5.13;;;8.80;99.90;;;;;;5076092;28;20480;-78
2022/09/22 05:37:57;;;;;;;15.37;9.37;;;9.00;99.90;;;;;;5081907;28;20447;-77
2022/09/22 05:40:25;;;;;;;9.67;7.03;;;9.10;99.90;;;;;;5076099;28;20526;-77
2022/09/22 05:42:53;;;;;;;8.80;5.87;;;9.20;99.90;;;;;;5075794;28;20419;-77
2022/09/22 05:45:21;;;;;;;7.13;6.23;;;9.20;99.90;;;;;;5075037;28;20891;-77
2022/09/22 05:47:48;;;;;;;10.57;5.50;;;9.30;99.90;;;;;;5074700;28;20434;-77
2022/09/22 05:50:18;;;;;;;6.80;5.30;;;9.30;99.90;;;;;;5075217;28;20244;-77
2022/09/22 05:52:45;;;;;;;5.90;5.30;;;9.30;99.90;;;;;;5075961;28;20425;-77
2022/09/22 05:55:13;;;;;;;5.83;5.00;;;9.30;99.90;;;;;;5075277;28;20518;-77
2022/09/22 05:57:42;;;;;;;11.93;5.37;;;9.40;99.90;;;;;;5075296;28;20463;-77
2022/09/22 06:00:10;;;;;;;5.33;4.83;;;9.50;99.90;;;;;;5075064;28;20527;-77
2022/09/22 06:02:37;;;;;;;8.73;4.78;;;9.60;99.90;;;;;;5074079;28;20445;-77
2022/09/22 06:05:04;;;;;;;6.87;4.77;;;9.60;99.90;;;;;;5074957;28;20230;-77
2022/09/22 06:07:31;;;;;;;5.03;4.63;;;9.60;99.90;;;;;;5076111;28;20444;-77
2022/09/22 06:09:58;;;;;;;10.70;6.10;;;9.70;99.90;;;;;;5080736;28;20446;-77
2022/09/22 06:12:24;;;;;;;7.90;4.60;;;9.70;99.90;;;;;;5081184;28;20438;-78
2022/09/22 06:14:52;;;;;;;6.27;4.00;;;9.70;99.90;;;;;;5078924;28;20218;-76
2022/09/22 06:17:19;;;;;;;7.50;4.53;;;9.80;99.90;;;;;;5074536;28;20479;-76
2022/09/22 06:19:48;;;;;;;5.47;4.13;;;9.80;99.90;;;;;;5074584;28;20950;-76
2022/09/22 06:22:15;;;;;;;5.57;3.90;;;9.90;99.90;;;;;;5074778;28;20449;-76
2022/09/22 06:24:42;;;;;;;4.40;4.00;;;9.90;99.90;;;;;;5074980;28;20467;-77
2022/09/22 06:27:09;;;;;;;4.93;3.90;;;10.00;99.90;;;;;;5075352;28;20424;-77
2022/09/22 06:29:36;;;;;;;9.33;4.17;;;10.10;99.90;;;;;;5074852;28;20232;-76
2022/09/22 06:32:06;;;;;;;4.50;3.80;;;10.10;99.90;;;;;;5075443;28;20435;-78
2022/09/22 06:34:33;;;;;;;3.93;3.60;;;10.20;99.90;;;;;;5079501;28;20509;-78
2022/09/22 06:37:01;;;;;;;7.73;4.27;;;10.20;99.90;;;;;;5082147;28;20433;-78
2022/09/22 06:39:27;;;;;;;5.23;3.60;;;10.20;99.90;;;;;;5079932;28;20469;-78
2022/09/22 06:41:55;;;;;;;7.10;3.87;;;10.30;99.90;;;;;;5082179;28;20453;-78
2022/09/22 06:44:22;;;;;;;5.33;3.53;;;10.40;99.90;;;;;;5093982;22;21142;-80
2022/09/22 06:46:49;;;;;;;4.20;3.57;;;10.40;99.90;;;;;;5082112;28;20737;-82
2022/09/22 06:49:17;;;;;;;5.60;4.00;;;10.40;99.90;;;;;;5078878;28;20453;-81
2022/09/22 06:51:44;;;;;;;4.43;3.93;;;10.40;99.90;;;;;;5078528;28;20445;-81
2022/09/22 06:54:10;;;;;;;6.10;4.70;;;10.80;99.90;;;;;;5077115;28;20445;-82
2022/09/22 06:56:41;;;;;;;6.20;3.57;;;10.60;99.90;;;;;;5078729;28;20480;-82
2022/09/22 06:59:11;;;;;;;5.60;3.03;;;10.50;99.90;;;;;;5078515;28;20867;-81
2022/09/22 07:01:38;;;;;;;4.13;3.70;;;10.80;99.90;;;;;;5077452;28;20824;-82
2022/09/22 07:04:08;;;;;;;5.40;3.40;;;11.00;99.90;;;;;;5077452;28;20963;-80
2022/09/22 07:06:38;;;;;;;5.70;3.90;;;10.80;99.90;;;;;;5083047;28;20433;-80
2022/09/22 07:09:05;;;;;;;4.43;2.70;;;10.80;99.90;;;;;;5082442;28;20419;-79
2022/09/22 07:11:32;;;;;;;4.83;4.00;;;10.90;99.90;;;;;;5082655;28;20452;-79
2022/09/22 07:14:01;;;;;;;5.13;3.20;;;11.10;99.90;;;;;;5083160;28;20452;-78
2022/09/22 07:16:28;;;;;;;3.57;3.30;;;10.90;99.90;;;;;;5079417;28;21011;-82
2022/09/22 07:18:57;;;;;;;5.60;2.70;;;11.00;99.90;;;;;;5076520;28;20448;-80
2022/09/22 07:21:26;;;;;;;4.33;3.73;;;11.00;99.90;;;;;;5077336;28;20793;-81
2022/09/22 07:23:56;;;;;;;3.63;3.33;;;11.10;99.90;;;;;;5079062;28;20815;-81
2022/09/22 07:26:25;;;;;;;5.13;3.40;;;11.10;99.90;;;;;;5078205;28;20447;-81
2022/09/22 07:28:53;;;;;;;4.00;3.50;;;11.10;99.90;;;;;;5078170;28;20958;-81
2022/09/22 07:31:22;;;;;;;3.40;3.20;;;11.20;99.90;;;;;;5077742;28;20445;-81
2022/09/22 07:33:49;;;;;;;3.37;3.07;;;11.20;99.90;;;;;;5077143;28;20959;-81
2022/09/22 07:36:17;;;;;;;4.20;3.80;;;11.20;99.90;;;;;;5077181;28;20492;-81
2022/09/22 07:38:48;;;;;;;6.87;3.87;;;11.30;99.90;;;;;;5076837;28;20471;-80
2022/09/22 07:41:18;;;;;;;4.10;2.87;;;11.40;99.90;;;;;;5077164;28;20527;-80
2022/09/22 07:43:45;;;;;;;2.63;2.43;;;11.40;99.90;;;;;;5077542;28;20444;-81
2022/09/22 07:46:12;;;;;;;3.00;2.77;;;11.40;99.90;;;;;;5076396;28;20481;-81
2022/09/22 07:48:44;;;;;;;4.87;2.90;;;11.40;99.90;;;;;;5076910;28;20856;-81
2022/09/22 07:51:15;;;;;;;4.40;2.87;;;11.80;99.90;;;;;;5076309;28;20800;-81
2022/09/22 07:53:42;;;;;;;8.20;3.23;;;11.60;99.90;;;;;;5076740;28;20778;-81
2022/09/22 07:56:11;;;;;;;10.30;2.97;;;11.60;99.90;;;;;;5076912;28;20511;-82
2022/09/22 07:58:43;;;;;;;3.00;2.60;;;11.70;99.90;;;;;;5077576;28;20453;-81
2022/09/22 08:01:11;;;;;;;7.43;3.25;;;11.80;99.90;;;;;;5080332;28;20849;-81
2022/09/22 08:03:38;;;;;;;2.37;2.20;;;11.90;99.90;;;;;;5081006;28;20206;-81
2022/09/22 08:06:09;;;;;;;3.83;2.60;;;12.00;99.90;;;;;;5080003;28;20487;-81
2022/09/22 08:08:37;;;;;;;4.83;2.97;;;11.90;83.40;;;;;;5080039;28;20494;-81
2022/09/22 08:11:06;;;;;;;2.47;1.87;;;12.00;93.60;;;;;;5080499;28;20540;-81
2022/09/22 08:13:33;;;;;;;5.40;2.30;;;12.00;30.10;;;;;;5079563;28;20560;-81
2022/09/22 08:16:02;;;;;;;3.13;2.93;;;12.10;67.20;;;;;;5079668;28;20491;-81
2022/09/22 08:18:29;;;;;;;4.20;2.60;;;12.20;99.90;;;;;;5080068;28;20448;-81
2022/09/22 08:20:56;;;;;;;4.10;2.70;;;12.20;1.00;;;;;;5080364;28;20897;-82
2022/09/22 08:23:23;;;;;;;5.07;3.27;;;12.30;99.90;;;;;;5082962;28;20452;-82
2022/09/22 08:25:50;;;;;;;3.60;1.77;;;12.40;99.90;;;;;;5085021;28;20468;-80
2022/09/22 08:28:17;;;;;;;1.93;1.83;;;12.40;1.00;;;;;;5083320;28;20487;-81
2022/09/22 08:30:45;;;;;;;2.77;2.57;;;12.40;1.00;;;;;;5079824;28;20448;-82
2022/09/22 08:33:13;;;;;;;1.87;1.77;;;12.60;99.90;;;;;;5079507;28;20452;-81
2022/09/22 08:35:51;;;;;;;2.17;1.77;;;12.60;1.00;;;;;;5086527;28;20986;-80
2022/09/22 08:38:18;;;;;;;1.80;1.63;;;12.70;1.00;;;;;;5080902;28;20433;-80
2022/09/22 08:40:52;;;;;;;2.37;2.17;;;12.70;99.90;;;;;;5080611;28;20451;-81
2022/09/22 08:43:18;;;;;;;1.63;1.37;;;12.80;99.90;;;;;;5084033;28;20425;-80
2022/09/22 08:45:45;;;;;;;1.63;1.53;;;12.90;99.90;;;;;;5086712;28;20475;-81
2022/09/22 08:53:55;;;;;;;2.10;1.33;;;13.00;99.90;;;;;;5089010;28;20466;-81
2022/09/22 08:56:28;;;;;;;1.50;1.30;;;12.90;1.00;;;;;;5089690;28;20581;-80
2022/09/22 08:59:03;;;;;;;2.00;1.40;;;13.00;1.00;;;;;;5089384;28;20896;-81
2022/09/22 09:01:54;;;;;;;3.23;1.57;;;12.90;1.00;;;;;;5081447;28;20438;-81
2022/09/22 09:05:01;;;;;;;1.87;1.53;;;12.90;1.00;;;;;;5081066;28;20475;-81
2022/09/22 09:07:42;;;;;;;1.90;0.90;;;13.00;1.00;;;;;;5080217;28;20431;-81
2022/09/22 09:10:21;;;;;;;1.27;1.00;;;13.00;99.90;;;;;;5079784;28;20475;-80
2022/09/22 09:13:04;;;;;;;1.23;1.13;;;13.10;1.00;;;;;;5079843;28;20467;-80
2022/09/22 09:15:54;;;;;;;2.03;1.40;;;13.20;99.90;;;;;;5079304;28;20492;-80
2022/09/22 09:18:25;;;;;;;2.40;1.63;;;13.30;1.00;;;;;;5083946;28;20457;-80
2022/09/22 09:20:54;;;;;;;1.73;1.50;;;13.40;94.30;;;;;;5087532;28;20433;-80
2022/09/22 09:23:28;;;;;;;2.33;1.60;;;13.50;99.90;;;;;;5088786;28;20436;-80
2022/09/22 09:25:56;;;;;;;1.53;1.40;;;13.50;1.00;;;;;;5086077;28;20487;-82
2022/09/22 09:28:31;;;;;;;1.93;1.47;;;13.50;99.90;;;;;;5081485;28;20627;-79
2022/09/22 09:31:06;;;;;;;1.90;1.23;;;13.60;1.00;;;;;;5080942;28;20903;-79
2022/09/22 09:33:42;;;;;;;1.43;1.33;;;13.50;99.90;;;;;;5079985;28;20424;-80
2022/09/22 09:36:15;;;;;;;1.90;1.27;;;13.60;1.00;;;;;;5079545;28;20553;-81
2022/09/22 09:38:48;;;;;;;2.50;1.10;;;13.60;99.90;;;;;;5080455;28;20429;-82
2022/09/22 09:41:20;;;;;;;2.50;1.10;;;13.70;99.90;;;;;;5079510;28;20440;-82
2022/09/22 09:43:47;;;;;;;1.40;1.30;;;13.50;99.90;;;;;;5081509;28;20547;-82
2022/09/22 09:46:25;;;;;;;4.03;1.50;;;13.40;99.90;;;;;;5080454;28;20476;-82
2022/09/22 09:49:05;;;;;;;2.13;1.20;;;13.40;99.90;;;;;;5080583;28;20433;-82
2022/09/22 09:51:36;;;;;;;6.03;1.77;;;13.40;99.90;;;;;;5079995;28;20476;-82
2022/09/22 09:54:05;;;;;;;2.20;1.30;;;13.20;99.90;;;;;;5082132;28;20475;-81
2022/09/22 09:56:35;;;;;;;4.10;1.47;;;13.20;99.90;;;;;;5080183;28;20484;-82
2022/09/22 10:01:50;;;;;;;1.33;1.17;;;13.10;99.90;;;;;;5082200;28;20384;-82
2022/09/22 10:04:18;;;;;;;1.67;1.13;;;13.10;1.00;;;;;;5083082;28;20473;-82
2022/09/22 10:06:48;;;;;;;1.63;1.10;;;13.10;99.90;;;;;;5078991;28;20498;-82
2022/09/22 10:09:24;;;;;;;1.50;1.17;;;13.10;1.00;;;;;;5078906;28;20502;-81
2022/09/22 10:11:59;;;;;;;2.10;1.00;;;13.20;99.90;;;;;;5078604;28;20958;-81
2022/09/22 10:14:29;;;;;;;3.00;1.67;;;13.30;1.00;;;;;;5080451;28;20475;-81
2022/09/22 10:16:56;;;;;;;1.60;1.50;;;13.40;99.90;;;;;;5080783;28;20515;-81
2022/09/22 10:19:27;;;;;;;2.03;1.60;;;13.60;1.00;;;;;;5078201;28;20453;-81
2022/09/22 10:22:16;;;;;;;3.53;1.30;;;13.70;1.00;;;;;;5078287;28;20437;-81
2022/09/22 10:24:53;;;;;;;1.83;1.40;;;13.70;99.90;;;;;;5077848;28;20871;-81
2022/09/22 10:27:22;;;;;;;1.60;1.50;;;14.10;99.90;;;;;;5078085;28;20425;-81
2022/09/22 10:30:21;;;;;;;3.73;1.40;;;14.20;99.90;;;;;;5080108;28;20487;-81
2022/09/22 10:33:05;;;;;;;1.50;1.40;;;14.30;99.90;;;;;;5097764;28;20425;-80
2022/09/22 10:35:34;;;;;;;3.10;2.60;;;14.40;99.90;;;;;;5096933;28;20465;-82
2022/09/22 10:38:08;;;;;;;2.63;2.20;;;14.50;1.00;;;;;;5097440;28;20437;-81
2022/09/22 10:40:37;;;;;;;5.30;2.87;;;14.70;1.00;;;;;;5089272;28;20428;-81
2022/09/22 10:43:13;;;;;;;2.10;1.40;;;14.80;57.80;;;;;;5079982;28;20459;-81
2022/09/22 10:45:47;;;;;;;1.70;1.60;;;14.90;99.90;;;;;;5077547;28;20919;-81
2022/09/22 10:48:26;;;;;;;1.57;1.40;;;14.90;1.00;;;;;;5077902;28;20456;-81
2022/09/22 10:50:58;;;;;;;1.33;1.23;;;14.90;1.00;;;;;;5076928;28;20425;-80
2022/09/22 10:53:38;;;;;;;1.40;1.30;;;15.10;99.90;;;;;;5077883;28;20456;-82
2022/09/22 10:56:19;;;;;;;2.27;2.07;;;15.20;99.90;;;;;;5078256;28;20480;-79
2022/09/22 10:59:05;;;;;;;2.60;1.00;;;15.20;99.90;;;;;;5081602;28;20451;-79
2022/09/22 11:01:59;;;;;;;2.00;1.60;;;15.20;99.90;;;;;;5079090;28;20491;-81
2022/09/22 11:04:44;;;;;;;2.10;0.90;;;15.20;99.90;;;;;;5076797;28;20982;-81
2022/09/22 11:13:35;;;;;;;1.63;1.23;;;14.80;1.00;;;;;;5077401;28;20404;-81
2022/09/22 11:16:31;;;;;;;1.03;0.93;;;14.80;99.90;;;;;;5077057;28;20500;-81
2022/09/22 11:19:14;;;;;;;3.23;2.50;;;14.80;99.90;;;;;;5077088;28;20468;-81
2022/09/22 11:21:53;;;;;;;2.60;2.33;;;14.90;99.90;;;;;;5076584;28;20489;-80
2022/09/22 11:24:37;;;;;;;4.67;4.10;;;15.00;99.90;;;;;;5076660;28;20468;-80
2022/09/22 11:27:14;;;;;;;3.20;1.40;;;15.10;13.30;;;;;;5076934;28;20429;-80
2022/09/22 11:29:59;;;;;;;1.20;1.10;;;15.10;1.00;;;;;;5076682;28;20436;-80
2022/09/22 11:32:38;;;;;;;1.63;1.30;;;15.30;1.00;;;;;;5076535;28;20436;-80
2022/09/22 11:35:50;;;;;;;4.70;2.60;;;15.30;61.40;;;;;;5075938;28;20460;-80
2022/09/22 11:38:41;;;;;;;7.20;5.70;;;15.40;55.10;;;;;;5025503;28;20439;-80
2022/09/22 11:41:29;;;;;;;2.63;2.43;;;15.50;1.00;;;;;;5077055;28;20448;-80
2022/09/22 11:44:29;;;;;;;2.40;1.20;;;15.50;58.80;;;;;;5076323;28;20425;-80
2022/09/22 11:47:23;;;;;;;8.20;4.90;;;15.60;1.00;;;;;;5076771;28;20421;-80
2022/09/22 11:50:08;;;;;;;6.10;4.07;;;16.00;99.90;;;;;;5074223;28;20455;-80
2022/09/22 11:52:51;;;;;;;4.43;3.90;;;15.70;1.00;;;;;;5076203;28;20465;-80
2022/09/22 11:55:28;;;;;;;1.53;1.40;;;15.30;99.90;;;;;;5075995;28;20476;-81
2022/09/22 11:57:59;;;;;;;1.63;1.20;;;15.60;1.00;;;;;;5076360;28;21044;-80
2022/09/22 12:00:33;;;;;;;0.93;0.90;;;15.60;1.00;;;;;;5076163;28;20429;-80
2022/09/22 12:03:04;;;;;;;2.30;1.10;;;15.60;1.00;;;;;;5075845;28;20527;-80
2022/09/22 12:05:37;;;;;;;2.60;1.90;;;15.50;1.00;;;;;;5076317;28;20502;-80
2022/09/22 12:08:08;;;;;;;5.23;3.93;;;15.60;1.00;;;;;;5076813;28;20425;-80
2022/09/22 12:10:39;;;;;;;2.90;1.80;;;15.60;98.40;;;;;;5076075;28;20436;-80
2022/09/22 12:13:10;;;;;;;1.33;1.20;;;15.60;1.00;;;;;;5076147;28;20441;-79
2022/09/22 12:15:46;;;;;;;2.87;2.57;;;15.00;99.90;;;;;;5076482;28;20469;-80
2022/09/22 12:18:18;;;;;;;6.07;2.40;;;15.30;1.00;;;;;;5076752;28;20500;-79
2022/09/22 12:20:54;;;;;;;1.60;1.50;;;15.30;1.00;;;;;;5082013;28;20506;-79
2022/09/22 12:23:35;;;;;;;2.07;1.50;;;15.20;1.00;;;;;;5081498;28;20471;-80
2022/09/22 12:26:07;;;;;;;15.10;9.90;;;15.10;1.00;;;;;;5081271;28;20495;-80
2022/09/22 12:28:40;;;;;;;1.70;1.60;;;15.10;1.00;;;;;;5078831;28;20504;-78
2022/09/22 12:31:11;;;;;;;2.20;1.43;;;15.30;1.00;;;;;;5083974;28;20429;-79
2022/09/22 12:33:46;;;;;;;4.70;1.40;;;15.30;1.00;;;;;;5081809;28;20788;-79
2022/09/22 12:36:27;;;;;;;3.93;2.87;;;15.40;1.00;;;;;;5076260;28;20463;-79
2022/09/22 12:39:15;;;;;;;2.20;1.40;;;15.50;1.00;;;;;;5078482;28;20421;-78
2022/09/22 12:41:48;;;;;;;1.30;1.20;;;15.40;1.00;;;;;;5078161;28;20452;-80
2022/09/22 12:44:20;;;;;;;3.60;3.27;;;15.50;1.00;;;;;;5076777;28;20461;-80
2022/09/22 12:46:49;;;;;;;1.77;1.67;;;15.60;55.30;;;;;;5102488;22;20583;-79
2022/09/22 12:49:19;;;;;;;4.73;3.23;;;15.60;1.00;;;;;;5080012;28;20445;-79
2022/09/22 12:51:46;;;;;;;3.37;3.07;;;15.70;1.00;;;;;;5079490;28;20823;-81
2022/09/22 12:54:38;;;;;;;11.10;7.73;;;15.80;1.00;;;;;;5078322;28;21019;-78
2022/09/22 12:57:23;;;;;;;6.53;3.77;;;15.80;1.00;;;;;;5058743;28;20875;-78
2022/09/22 13:00:19;;;;;;;7.50;6.00;;;15.80;1.00;;;;;;5060432;28;20461;-79
2022/09/22 13:02:48;;;;;;;8.07;5.13;;;15.90;1.00;;;;;;5057455;28;21039;-79
2022/09/22 13:05:41;;;;;;;4.23;2.00;;;15.90;94.30;;;;;;5059180;28;20466;-78
2022/09/22 13:08:17;;;;;;;4.87;3.13;;;15.90;1.00;;;;;;5065115;28;20422;-79
2022/09/22 13:11:00;;;;;;;1.70;1.40;;;15.80;31.40;;;;;;5062250;28;20848;-78
2022/09/22 13:13:45;;;;;;;6.47;4.77;;;16.00;1.00;;;;;;5060232;28;20452;-79
2022/09/22 13:16:35;;;;;;;4.20;3.33;;;16.20;7.70;;;;;;5059407;28;20548;-78
2022/09/22 13:19:09;;;;;;;4.67;3.30;;;16.30;1.00;;;;;;5059101;28;20422;-79
2022/09/22 13:21:40;;;;;;;2.73;1.87;;;16.30;1.00;;;;;;5058763;28;20430;-79
2022/09/22 13:24:21;;;;;;;2.30;2.10;;;16.30;1.00;;;;;;5058751;28;20440;-78
2022/09/22 13:26:47;;;;;;;2.10;1.90;;;16.20;1.00;;;;;;5057716;28;20462;-78
2022/09/22 13:29:16;;;;;;;2.63;1.97;;;16.00;1.00;;;;;;5057854;28;20449;-79
2022/09/22 13:31:45;;;;;;;1.57;1.47;;;16.30;62.20;;;;;;5058627;28;20481;-78